sensor_id;sensor_type;location;lat;lon;timestamp;pressure;altitude;pressure_sealevel;temperature;humidity
65872;BME280;52653;50.080;21.992;2023-11-22T00:01:25;99199.89;;;0.59;100.00
65872;BME280;52653;50.080;21.992;2023-11-22T00:04:18;99197.97;;;0.58;100.00
65872;BME280;52653;50.080;21.992;2023-11-22T00:07:14;99197.73;;;0.55;100.00
65872;BME280;52653;50.080;21.992;2023-11-22T00:10:08;99201.27;;;0.53;100.00
65872;BME280;52653;50.080;21.992;2023-11-22T00:12:54;99206.52;;;0.50;100.00
65872;BME280;52653;50.080;21.992;2023-11-22T00:15:47;99216.14;;;0.49;100.00
65872;BME280;52653;50.080;21.992;2023-11-22T00:18:34;99221.75;;;0.46;100.00
65872;BME280;52653;50.080;21.992;2023-11-22T00:21:30;99227.70;;;0.43;100.00
65872;BME280;52653;50.080;21.992;2023-11-22T00:24:23;99232.23;;;0.40;100.00
65872;BME280;52653;50.080;21.992;2023-11-22T00:27:20;99234.03;;;0.37;100.00
65872;BME280;52653;50.080;21.992;2023-11-22T00:30:07;99234.83;;;0.36;100.00
65872;BME280;52653;50.080;21.992;2023-11-22T00:33:01;99237.23;;;0.35;100.00
65872;BME280;52653;50.080;21.992;2023-11-22T00:35:58;99241.69;;;0.34;100.00
65872;BME280;52653;50.080;21.992;2023-11-22T00:38:42;99244.34;;;0.31;100.00
65872;BME280;52653;50.080;21.992;2023-11-22T00:41:36;99244.52;;;0.25;100.00
65872;BME280;52653;50.080;21.992;2023-11-22T00:44:49;99245.70;;;0.19;100.00
65872;BME280;52653;50.080;21.992;2023-11-22T00:47:43;99250.73;;;0.15;100.00
65872;BME280;52653;50.080;21.992;2023-11-22T00:50:36;99251.09;;;0.11;100.00
65872;BME280;52653;50.080;21.992;2023-11-22T00:53:29;99255.14;;;0.08;100.00
65872;BME280;52653;50.080;21.992;2023-11-22T00:56:21;99259.20;;;0.06;100.00
65872;BME280;52653;50.080;21.992;2023-11-22T00:59:07;99262.80;;;0.06;100.00
65872;BME280;52653;50.080;21.992;2023-11-22T01:01:59;99265.48;;;0.03;100.00
65872;BME280;52653;50.080;21.992;2023-11-22T01:04:46;99264.54;;;0.01;100.00
65872;BME280;52653;50.080;21.992;2023-11-22T01:07:33;99268.48;;;-0.05;100.00
65872;BME280;52653;50.080;21.992;2023-11-22T01:10:26;99267.59;;;-0.06;100.00
65872;BME280;52653;50.080;21.992;2023-11-22T01:13:19;99271.95;;;-0.09;100.00
65872;BME280;52653;50.080;21.992;2023-11-22T01:16:14;99277.40;;;-0.11;100.00
65872;BME280;52653;50.080;21.992;2023-11-22T01:19:03;99285.64;;;-0.12;100.00
65872;BME280;52653;50.080;21.992;2023-11-22T01:21:56;99290.35;;;-0.15;100.00
65872;BME280;52653;50.080;21.992;2023-11-22T01:24:49;99290.33;;;-0.20;100.00
65872;BME280;52653;50.080;21.992;2023-11-22T01:27:43;99293.33;;;-0.24;100.00
65872;BME280;52653;50.080;21.992;2023-11-22T01:30:36;99291.95;;;-0.23;100.00
65872;BME280;52653;50.080;21.992;2023-11-22T01:33:30;99296.30;;;-0.22;100.00
65872;BME280;52653;50.080;21.992;2023-11-22T01:36:26;99301.77;;;-0.23;100.00
65872;BME280;52653;50.080;21.992;2023-11-22T01:39:27;99307.83;;;-0.27;100.00
65872;BME280;52653;50.080;21.992;2023-11-22T01:42:20;99308.56;;;-0.31;100.00
65872;BME280;52653;50.080;21.992;2023-11-22T01:45:15;99312.65;;;-0.37;100.00
65872;BME280;52653;50.080;21.992;2023-11-22T01:48:11;99312.13;;;-0.41;100.00
65872;BME280;52653;50.080;21.992;2023-11-22T01:51:04;99316.79;;;-0.45;100.00
65872;BME280;52653;50.080;21.992;2023-11-22T01:54:02;99313.38;;;-0.49;100.00
65872;BME280;52653;50.080;21.992;2023-11-22T01:56:57;99311.45;;;-0.55;100.00
65872;BME280;52653;50.080;21.992;2023-11-22T01:59:50;99312.00;;;-0.58;100.00
65872;BME280;52653;50.080;21.992;2023-11-22T02:02:43;99311.40;;;-0.61;100.00
65872;BME280;52653;50.080;21.992;2023-11-22T02:05:41;99310.45;;;-0.63;100.00
65872;BME280;52653;50.080;21.992;2023-11-22T02:08:57;99318.63;;;-0.65;100.00
65872;BME280;52653;50.080;21.992;2023-11-22T02:11:51;99320.59;;;-0.68;100.00
65872;BME280;52653;50.080;21.992;2023-11-22T02:14:45;99323.45;;;-0.70;100.00
65872;BME280;52653;50.080;21.992;2023-11-22T02:17:39;99336.13;;;-0.72;100.00
65872;BME280;52653;50.080;21.992;2023-11-22T02:20:32;99337.80;;;-0.73;100.00
65872;BME280;52653;50.080;21.992;2023-11-22T02:23:25;99339.17;;;-0.73;100.00
65872;BME280;52653;50.080;21.992;2023-11-22T02:26:22;99339.16;;;-0.73;100.00
65872;BME280;52653;50.080;21.992;2023-11-22T02:29:18;99343.09;;;-0.74;100.00
65872;BME280;52653;50.080;21.992;2023-11-22T02:32:13;99347.29;;;-0.76;100.00
65872;BME280;52653;50.080;21.992;2023-11-22T02:35:06;99350.80;;;-0.79;100.00
65872;BME280;52653;50.080;21.992;2023-11-22T02:38:03;99354.56;;;-0.84;100.00
65872;BME280;52653;50.080;21.992;2023-11-22T02:40:57;99363.91;;;-0.88;100.00
65872;BME280;52653;50.080;21.992;2023-11-22T02:43:53;99368.94;;;-0.90;100.00
65872;BME280;52653;50.080;21.992;2023-11-22T02:46:46;99377.85;;;-0.96;100.00
65872;BME280;52653;50.080;21.992;2023-11-22T02:49:40;99377.21;;;-0.99;100.00
65872;BME280;52653;50.080;21.992;2023-11-22T02:52:25;99381.23;;;-0.98;100.00
65872;BME280;52653;50.080;21.992;2023-11-22T02:55:18;99382.17;;;-0.96;100.00
65872;BME280;52653;50.080;21.992;2023-11-22T02:58:05;99389.77;;;-0.95;100.00
65872;BME280;52653;50.080;21.992;2023-11-22T03:00:59;99390.23;;;-0.92;100.00
65872;BME280;52653;50.080;21.992;2023-11-22T03:03:51;99396.23;;;-0.93;100.00
65872;BME280;52653;50.080;21.992;2023-11-22T03:06:37;99403.33;;;-0.92;100.00
65872;BME280;52653;50.080;21.992;2023-11-22T03:09:30;99407.27;;;-0.92;100.00
65872;BME280;52653;50.080;21.992;2023-11-22T03:12:23;99408.27;;;-0.92;100.00
65872;BME280;52653;50.080;21.992;2023-11-22T03:15:20;99410.71;;;-0.88;100.00
65872;BME280;52653;50.080;21.992;2023-11-22T03:18:13;99414.96;;;-0.85;100.00
65872;BME280;52653;50.080;21.992;2023-11-22T03:21:09;99416.71;;;-0.85;100.00
65872;BME280;52653;50.080;21.992;2023-11-22T03:24:01;99420.38;;;-0.83;100.00
65872;BME280;52653;50.080;21.992;2023-11-22T03:26:54;99430.42;;;-0.82;100.00
65872;BME280;52653;50.080;21.992;2023-11-22T03:29:50;99433.20;;;-0.81;100.00
65872;BME280;52653;50.080;21.992;2023-11-22T03:32:36;99435.81;;;-0.80;100.00
65872;BME280;52653;50.080;21.992;2023-11-22T03:35:31;99439.07;;;-0.80;100.00
65872;BME280;52653;50.080;21.992;2023-11-22T03:38:16;99443.55;;;-0.80;100.00
65872;BME280;52653;50.080;21.992;2023-11-22T03:41:10;99451.56;;;-0.83;100.00
65872;BME280;52653;50.080;21.992;2023-11-22T03:44:06;99457.13;;;-0.86;100.00
65872;BME280;52653;50.080;21.992;2023-11-22T03:47:00;99455.32;;;-0.88;100.00
65872;BME280;52653;50.080;21.992;2023-11-22T03:49:53;99455.95;;;-0.89;100.00
65872;BME280;52653;50.080;21.992;2023-11-22T03:52:46;99460.58;;;-0.89;100.00
65872;BME280;52653;50.080;21.992;2023-11-22T03:55:39;99467.85;;;-0.88;100.00
65872;BME280;52653;50.080;21.992;2023-11-22T03:58:26;99472.13;;;-0.89;100.00
65872;BME280;52653;50.080;21.992;2023-11-22T04:01:19;99470.83;;;-0.91;99.97
65872;BME280;52653;50.080;21.992;2023-11-22T04:04:03;99475.48;;;-0.91;100.00
65872;BME280;52653;50.080;21.992;2023-11-22T04:06:56;99483.26;;;-0.91;100.00
65872;BME280;52653;50.080;21.992;2023-11-22T04:09:40;99491.81;;;-0.92;99.85
65872;BME280;52653;50.080;21.992;2023-11-22T04:12:34;99494.90;;;-0.92;99.90
65872;BME280;52653;50.080;21.992;2023-11-22T04:15:28;99502.88;;;-0.91;99.86
65872;BME280;52653;50.080;21.992;2023-11-22T04:18:21;99510.11;;;-0.87;99.70
65872;BME280;52653;50.080;21.992;2023-11-22T04:21:14;99522.00;;;-0.86;99.33
65872;BME280;52653;50.080;21.992;2023-11-22T04:24:08;99526.29;;;-0.91;98.91
65872;BME280;52653;50.080;21.992;2023-11-22T04:27:04;99529.98;;;-0.89;99.16
65872;BME280;52653;50.080;21.992;2023-11-22T04:29:51;99534.04;;;-0.87;99.13
65872;BME280;52653;50.080;21.992;2023-11-22T04:32:45;99538.98;;;-0.88;98.88
65872;BME280;52653;50.080;21.992;2023-11-22T04:35:39;99541.59;;;-0.91;98.56
65872;BME280;52653;50.080;21.992;2023-11-22T04:38:33;99554.83;;;-0.91;98.63
65872;BME280;52653;50.080;21.992;2023-11-22T04:41:19;99563.22;;;-0.93;98.25
65872;BME280;52653;50.080;21.992;2023-11-22T04:44:14;99564.33;;;-0.91;98.38
65872;BME280;52653;50.080;21.992;2023-11-22T04:47:08;99566.91;;;-0.91;98.00
65872;BME280;52653;50.080;21.992;2023-11-22T04:50:01;99577.80;;;-0.94;97.87
65872;BME280;52653;50.080;21.992;2023-11-22T04:52:57;99581.60;;;-0.98;97.79
65872;BME280;52653;50.080;21.992;2023-11-22T04:55:53;99593.03;;;-1.00;97.72
65872;BME280;52653;50.080;21.992;2023-11-22T04:58:39;99593.36;;;-1.01;97.84
65872;BME280;52653;50.080;21.992;2023-11-22T05:01:34;99597.19;;;-1.03;97.69
65872;BME280;52653;50.080;21.992;2023-11-22T05:04:29;99609.13;;;-1.02;97.75
65872;BME280;52653;50.080;21.992;2023-11-22T05:07:23;99616.04;;;-1.05;97.46
65872;BME280;52653;50.080;21.992;2023-11-22T05:10:18;99623.52;;;-1.07;97.33
65872;BME280;52653;50.080;21.992;2023-11-22T05:13:11;99622.11;;;-1.07;97.43
65872;BME280;52653;50.080;21.992;2023-11-22T05:16:04;99632.76;;;-1.08;97.32
65872;BME280;52653;50.080;21.992;2023-11-22T05:18:51;99635.94;;;-1.10;97.22
65872;BME280;52653;50.080;21.992;2023-11-22T05:21:44;99642.36;;;-1.09;97.14
65872;BME280;52653;50.080;21.992;2023-11-22T05:24:37;99647.76;;;-1.08;97.16
65872;BME280;52653;50.080;21.992;2023-11-22T05:27:33;99655.48;;;-1.08;97.00
65872;BME280;52653;50.080;21.992;2023-11-22T05:30:26;99657.23;;;-1.08;96.88
65872;BME280;52653;50.080;21.992;2023-11-22T05:33:19;99658.82;;;-1.07;97.15
65872;BME280;52653;50.080;21.992;2023-11-22T05:36:12;99661.16;;;-1.08;96.96
65872;BME280;52653;50.080;21.992;2023-11-22T05:39:08;99663.59;;;-1.08;97.51
65872;BME280;52653;50.080;21.992;2023-11-22T05:42:01;99668.66;;;-1.06;97.53
65872;BME280;52653;50.080;21.992;2023-11-22T05:44:54;99670.96;;;-1.08;97.80
65872;BME280;52653;50.080;21.992;2023-11-22T05:47:47;99685.82;;;-1.11;97.65
65872;BME280;52653;50.080;21.992;2023-11-22T05:50:39;99693.11;;;-1.13;97.21
65872;BME280;52653;50.080;21.992;2023-11-22T05:53:33;99695.67;;;-1.13;97.37
65872;BME280;52653;50.080;21.992;2023-11-22T05:56:26;99705.03;;;-1.12;97.28
65872;BME280;52653;50.080;21.992;2023-11-22T05:59:23;99708.63;;;-1.09;97.37
65872;BME280;52653;50.080;21.992;2023-11-22T06:02:18;99712.05;;;-1.10;97.05
65872;BME280;52653;50.080;21.992;2023-11-22T06:05:11;99720.51;;;-1.13;96.81
65872;BME280;52653;50.080;21.992;2023-11-22T06:07:56;99726.82;;;-1.14;96.65
65872;BME280;52653;50.080;21.992;2023-11-22T06:10:49;99729.94;;;-1.13;96.74
65872;BME280;52653;50.080;21.992;2023-11-22T06:13:43;99739.33;;;-1.14;96.58
65872;BME280;52653;50.080;21.992;2023-11-22T06:16:38;99741.73;;;-1.14;96.78
65872;BME280;52653;50.080;21.992;2023-11-22T06:19:32;99745.48;;;-1.15;96.59
65872;BME280;52653;50.080;21.992;2023-11-22T06:22:26;99750.29;;;-1.20;96.59
65872;BME280;52653;50.080;21.992;2023-11-22T06:25:22;99754.59;;;-1.20;97.04
65872;BME280;52653;50.080;21.992;2023-11-22T06:28:16;99756.77;;;-1.21;96.94
65872;BME280;52653;50.080;21.992;2023-11-22T06:31:11;99760.33;;;-1.18;96.55
65872;BME280;52653;50.080;21.992;2023-11-22T06:34:05;99764.94;;;-1.20;96.23
65872;BME280;52653;50.080;21.992;2023-11-22T06:36:43;99767.50;;;-1.20;96.08
65872;BME280;52653;50.080;21.992;2023-11-22T06:39:56;99771.77;;;-1.31;96.34
65872;BME280;52653;50.080;21.992;2023-11-22T06:42:49;99776.71;;;-1.36;96.29
65872;BME280;52653;50.080;21.992;2023-11-22T06:45:43;99783.69;;;-1.34;96.65
65872;BME280;52653;50.080;21.992;2023-11-22T06:48:37;99783.70;;;-1.33;96.49
65872;BME280;52653;50.080;21.992;2023-11-22T06:51:30;99787.94;;;-1.31;96.42
65872;BME280;52653;50.080;21.992;2023-11-22T06:54:23;99791.45;;;-1.29;96.38
65872;BME280;52653;50.080;21.992;2023-11-22T06:57:16;99798.09;;;-1.28;96.43
65872;BME280;52653;50.080;21.992;2023-11-22T07:00:10;99803.89;;;-1.32;96.53
65872;BME280;52653;50.080;21.992;2023-11-22T07:02:56;99805.40;;;-1.33;96.57
65872;BME280;52653;50.080;21.992;2023-11-22T07:05:49;99809.44;;;-1.35;96.36
65872;BME280;52653;50.080;21.992;2023-11-22T07:08:45;99807.75;;;-1.30;96.15
65872;BME280;52653;50.080;21.992;2023-11-22T07:11:38;99806.23;;;-1.30;96.26
65872;BME280;52653;50.080;21.992;2023-11-22T07:14:32;99811.73;;;-1.30;96.39
65872;BME280;52653;50.080;21.992;2023-11-22T07:17:25;99814.91;;;-1.32;96.13
65872;BME280;52653;50.080;21.992;2023-11-22T07:20:19;99823.64;;;-1.33;95.94
65872;BME280;52653;50.080;21.992;2023-11-22T07:23:12;99822.56;;;-1.34;95.66
65872;BME280;52653;50.080;21.992;2023-11-22T07:25:50;99824.76;;;-1.35;95.54
65872;BME280;52653;50.080;21.992;2023-11-22T07:28:46;99825.46;;;-1.34;95.49
65872;BME280;52653;50.080;21.992;2023-11-22T07:31:39;99830.29;;;-1.34;95.55
65872;BME280;52653;50.080;21.992;2023-11-22T07:34:34;99835.48;;;-1.34;95.54
65872;BME280;52653;50.080;21.992;2023-11-22T07:37:27;99832.20;;;-1.34;95.83
65872;BME280;52653;50.080;21.992;2023-11-22T07:40:20;99832.14;;;-1.32;96.06
65872;BME280;52653;50.080;21.992;2023-11-22T07:43:10;99832.52;;;-1.31;96.16
65872;BME280;52653;50.080;21.992;2023-11-22T07:46:06;99838.38;;;-1.28;96.33
65872;BME280;52653;50.080;21.992;2023-11-22T07:49:05;99840.04;;;-1.25;96.24
65872;BME280;52653;50.080;21.992;2023-11-22T07:51:50;99843.61;;;-1.23;96.38
65872;BME280;52653;50.080;21.992;2023-11-22T07:54:43;99846.55;;;-1.22;96.20
65872;BME280;52653;50.080;21.992;2023-11-22T07:57:38;99852.23;;;-1.19;96.03
65872;BME280;52653;50.080;21.992;2023-11-22T08:00:32;99850.52;;;-1.18;95.96
65872;BME280;52653;50.080;21.992;2023-11-22T08:03:26;99855.64;;;-1.19;95.96
65872;BME280;52653;50.080;21.992;2023-11-22T08:06:21;99858.84;;;-1.21;95.90
65872;BME280;52653;50.080;21.992;2023-11-22T08:09:15;99867.07;;;-1.22;96.10
65872;BME280;52653;50.080;21.992;2023-11-22T08:12:11;99873.07;;;-1.18;96.34
65872;BME280;52653;50.080;21.992;2023-11-22T08:15:05;99881.40;;;-1.16;96.04
65872;BME280;52653;50.080;21.992;2023-11-22T08:17:59;99887.51;;;-1.14;96.02
65872;BME280;52653;50.080;21.992;2023-11-22T08:20:51;99895.91;;;-1.19;96.02
65872;BME280;52653;50.080;21.992;2023-11-22T08:23:46;99897.45;;;-1.23;96.13
65872;BME280;52653;50.080;21.992;2023-11-22T08:26:32;99901.36;;;-1.24;96.44
65872;BME280;52653;50.080;21.992;2023-11-22T08:29:26;99904.55;;;-1.22;96.47
65872;BME280;52653;50.080;21.992;2023-11-22T08:32:19;99914.50;;;-1.23;96.41
65872;BME280;52653;50.080;21.992;2023-11-22T08:35:15;99919.54;;;-1.25;96.18
65872;BME280;52653;50.080;21.992;2023-11-22T08:38:01;99917.33;;;-1.28;96.03
65872;BME280;52653;50.080;21.992;2023-11-22T08:40:55;99920.18;;;-1.29;95.85
65872;BME280;52653;50.080;21.992;2023-11-22T08:43:48;99925.77;;;-1.28;95.58
65872;BME280;52653;50.080;21.992;2023-11-22T08:46:41;99927.83;;;-1.28;95.28
65872;BME280;52653;50.080;21.992;2023-11-22T08:49:35;99930.02;;;-1.28;95.47
65872;BME280;52653;50.080;21.992;2023-11-22T08:52:20;99928.61;;;-1.29;95.49
65872;BME280;52653;50.080;21.992;2023-11-22T08:55:16;99920.77;;;-1.24;95.48
65872;BME280;52653;50.080;21.992;2023-11-22T08:58:09;99921.81;;;-1.21;95.24
65872;BME280;52653;50.080;21.992;2023-11-22T09:01:01;99917.41;;;-1.19;94.87
65872;BME280;52653;50.080;21.992;2023-11-22T09:03:55;99915.04;;;-1.19;94.81
65872;BME280;52653;50.080;21.992;2023-11-22T09:06:48;99914.88;;;-1.19;94.58
65872;BME280;52653;50.080;21.992;2023-11-22T09:09:42;99919.63;;;-1.20;94.47
65872;BME280;52653;50.080;21.992;2023-11-22T09:12:35;99926.08;;;-1.18;94.60
65872;BME280;52653;50.080;21.992;2023-11-22T09:15:30;99924.21;;;-1.17;94.45
65872;BME280;52653;50.080;21.992;2023-11-22T09:18:29;99924.59;;;-1.13;94.39
65872;BME280;52653;50.080;21.992;2023-11-22T09:21:25;99927.77;;;-1.12;94.20
65872;BME280;52653;50.080;21.992;2023-11-22T09:24:18;99926.98;;;-1.07;94.43
65872;BME280;52653;50.080;21.992;2023-11-22T09:27:12;99926.64;;;-1.03;94.22
65872;BME280;52653;50.080;21.992;2023-11-22T09:30:13;99920.22;;;-1.01;94.02
65872;BME280;52653;50.080;21.992;2023-11-22T09:33:31;99921.08;;;-0.94;94.22
65872;BME280;52653;50.080;21.992;2023-11-22T09:36:25;99922.95;;;-0.88;94.21
65872;BME280;52653;50.080;21.992;2023-11-22T09:39:12;99923.53;;;-0.86;93.57
65872;BME280;52653;50.080;21.992;2023-11-22T09:42:06;99931.08;;;-0.87;93.16
65872;BME280;52653;50.080;21.992;2023-11-22T09:44:59;99934.89;;;-0.90;92.98
65872;BME280;52653;50.080;21.992;2023-11-22T09:47:52;99940.84;;;-0.91;93.13
65872;BME280;52653;50.080;21.992;2023-11-22T09:50:53;99934.83;;;-0.91;92.93
65872;BME280;52653;50.080;21.992;2023-11-22T09:53:55;99936.58;;;-0.90;93.18
65872;BME280;52653;50.080;21.992;2023-11-22T09:56:40;99937.55;;;-0.91;92.97
65872;BME280;52653;50.080;21.992;2023-11-22T09:59:33;99941.69;;;-0.91;93.01
65872;BME280;52653;50.080;21.992;2023-11-22T10:02:22;99938.76;;;-0.92;92.90
65872;BME280;52653;50.080;21.992;2023-11-22T10:05:21;99945.52;;;-0.91;92.95
65872;BME280;52653;50.080;21.992;2023-11-22T10:08:14;99944.20;;;-0.90;92.90
65872;BME280;52653;50.080;21.992;2023-11-22T10:11:10;99947.21;;;-0.91;92.81
65872;BME280;52653;50.080;21.992;2023-11-22T10:13:44;99949.59;;;-0.89;92.85
65872;BME280;52653;50.080;21.992;2023-11-22T10:16:23;99953.63;;;-0.87;92.68
65872;BME280;52653;50.080;21.992;2023-11-22T10:18:55;99956.48;;;-0.85;92.54
65872;BME280;52653;50.080;21.992;2023-11-22T10:22:03;99957.36;;;-0.84;92.21
65872;BME280;52653;50.080;21.992;2023-11-22T10:24:38;99960.73;;;-0.83;92.20
65872;BME280;52653;50.080;21.992;2023-11-22T10:27:14;99961.41;;;-0.83;91.89
65872;BME280;52653;50.080;21.992;2023-11-22T10:29:52;99959.69;;;-0.83;91.96
65872;BME280;52653;50.080;21.992;2023-11-22T10:32:26;99959.01;;;-0.79;92.21
65872;BME280;52653;50.080;21.992;2023-11-22T10:34:59;99957.71;;;-0.74;91.81
65872;BME280;52653;50.080;21.992;2023-11-22T10:37:32;99963.11;;;-0.73;91.85
65872;BME280;52653;50.080;21.992;2023-11-22T10:40:06;99968.73;;;-0.71;91.99
65872;BME280;52653;50.080;21.992;2023-11-22T10:42:42;99974.42;;;-0.70;91.81
65872;BME280;52653;50.080;21.992;2023-11-22T10:45:16;99980.73;;;-0.72;91.60
65872;BME280;52653;50.080;21.992;2023-11-22T10:47:51;99986.14;;;-0.70;92.10
65872;BME280;52653;50.080;21.992;2023-11-22T10:50:25;99995.59;;;-0.68;92.38
65872;BME280;52653;50.080;21.992;2023-11-22T10:52:59;100006.98;;;-0.67;92.25
65872;BME280;52653;50.080;21.992;2023-11-22T10:55:34;100011.99;;;-0.66;91.64
65872;BME280;52653;50.080;21.992;2023-11-22T10:58:10;100015.30;;;-0.69;91.15
65872;BME280;52653;50.080;21.992;2023-11-22T11:00:45;100022.66;;;-0.70;91.47
65872;BME280;52653;50.080;21.992;2023-11-22T11:03:20;100028.42;;;-0.72;91.55
65872;BME280;52653;50.080;21.992;2023-11-22T11:05:56;100031.60;;;-0.77;91.23
65872;BME280;52653;50.080;21.992;2023-11-22T11:08:33;100033.79;;;-0.78;91.63
65872;BME280;52653;50.080;21.992;2023-11-22T11:11:10;100041.41;;;-0.77;91.59
65872;BME280;52653;50.080;21.992;2023-11-22T11:13:43;100043.98;;;-0.74;91.70
65872;BME280;52653;50.080;21.992;2023-11-22T11:16:15;100038.50;;;-0.74;90.86
65872;BME280;52653;50.080;21.992;2023-11-22T11:18:49;100037.71;;;-0.69;90.53
65872;BME280;52653;50.080;21.992;2023-11-22T11:21:22;100036.63;;;-0.59;90.04
65872;BME280;52653;50.080;21.992;2023-11-22T11:23:58;100034.28;;;-0.51;89.52
65872;BME280;52653;50.080;21.992;2023-11-22T11:26:36;100031.05;;;-0.43;89.12
65872;BME280;52653;50.080;21.992;2023-11-22T11:29:32;100033.35;;;-0.35;88.92
65872;BME280;52653;50.080;21.992;2023-11-22T11:32:11;100027.23;;;-0.23;88.80
65872;BME280;52653;50.080;21.992;2023-11-22T11:34:51;100029.02;;;-0.08;88.67
65872;BME280;52653;50.080;21.992;2023-11-22T11:37:25;100031.85;;;0.09;88.84
65872;BME280;52653;50.080;21.992;2023-11-22T11:39:59;100028.79;;;0.21;87.69
65872;BME280;52653;50.080;21.992;2023-11-22T11:42:32;100029.95;;;0.31;87.01
65872;BME280;52653;50.080;21.992;2023-11-22T11:45:07;100031.22;;;0.36;84.56
65872;BME280;52653;50.080;21.992;2023-11-22T11:47:44;100029.67;;;0.44;84.94
65872;BME280;52653;50.080;21.992;2023-11-22T11:50:21;100031.16;;;0.53;85.14
65872;BME280;52653;50.080;21.992;2023-11-22T11:52:57;100031.13;;;0.61;84.54
65872;BME280;52653;50.080;21.992;2023-11-22T11:55:33;100030.30;;;0.65;83.93
65872;BME280;52653;50.080;21.992;2023-11-22T11:58:07;100029.59;;;0.65;83.70
65872;BME280;52653;50.080;21.992;2023-11-22T12:00:40;100026.08;;;0.60;83.39
65872;BME280;52653;50.080;21.992;2023-11-22T12:03:13;100027.54;;;0.50;83.17
65872;BME280;52653;50.080;21.992;2023-11-22T12:05:53;100033.08;;;0.35;82.50
65872;BME280;52653;50.080;21.992;2023-11-22T12:08:25;100030.52;;;0.21;82.54
65872;BME280;52653;50.080;21.992;2023-11-22T12:11:01;100024.20;;;0.12;83.68
65872;BME280;52653;50.080;21.992;2023-11-22T12:13:35;100021.36;;;0.06;84.13
65872;BME280;52653;50.080;21.992;2023-11-22T12:16:10;100022.43;;;-0.01;84.27
65872;BME280;52653;50.080;21.992;2023-11-22T12:18:48;100024.89;;;-0.07;84.40
65872;BME280;52653;50.080;21.992;2023-11-22T12:21:21;100023.52;;;-0.11;84.74
65872;BME280;52653;50.080;21.992;2023-11-22T12:23:56;100029.34;;;-0.14;85.32
65872;BME280;52653;50.080;21.992;2023-11-22T12:26:29;100034.69;;;-0.22;85.50
65872;BME280;52653;50.080;21.992;2023-11-22T12:29:04;100037.23;;;-0.29;85.12
65872;BME280;52653;50.080;21.992;2023-11-22T12:31:45;100048.29;;;-0.33;85.24
65872;BME280;52653;50.080;21.992;2023-11-22T12:34:19;100055.20;;;-0.39;84.31
65872;BME280;52653;50.080;21.992;2023-11-22T12:36:53;100059.53;;;-0.42;84.01
65872;BME280;52653;50.080;21.992;2023-11-22T12:39:25;100056.33;;;-0.44;83.72
65872;BME280;52653;50.080;21.992;2023-11-22T12:42:00;100058.29;;;-0.47;83.57
65872;BME280;52653;50.080;21.992;2023-11-22T12:44:50;100060.12;;;-0.48;83.55
65872;BME280;52653;50.080;21.992;2023-11-22T12:47:33;100058.30;;;-0.50;83.92
65872;BME280;52653;50.080;21.992;2023-11-22T12:50:10;100061.04;;;-0.53;84.00
65872;BME280;52653;50.080;21.992;2023-11-22T12:53:07;100060.52;;;-0.57;83.92
65872;BME280;52653;50.080;21.992;2023-11-22T12:55:44;100062.54;;;-0.62;83.97
65872;BME280;52653;50.080;21.992;2023-11-22T12:58:18;100062.11;;;-0.66;83.81
65872;BME280;52653;50.080;21.992;2023-11-22T13:00:52;100060.71;;;-0.71;83.57
65872;BME280;52653;50.080;21.992;2023-11-22T13:03:30;100063.36;;;-0.73;84.03
65872;BME280;52653;50.080;21.992;2023-11-22T13:06:03;100068.67;;;-0.73;84.03
65872;BME280;52653;50.080;21.992;2023-11-22T13:08:37;100067.02;;;-0.75;83.98
65872;BME280;52653;50.080;21.992;2023-11-22T13:11:13;100060.73;;;-0.77;84.21
65872;BME280;52653;50.080;21.992;2023-11-22T13:13:46;100065.55;;;-0.80;83.91
65872;BME280;52653;50.080;21.992;2023-11-22T13:16:20;100067.48;;;-0.83;84.35
65872;BME280;52653;50.080;21.992;2023-11-22T13:18:53;100065.69;;;-0.88;84.56
65872;BME280;52653;50.080;21.992;2023-11-22T13:21:25;100071.39;;;-0.90;84.76
65872;BME280;52653;50.080;21.992;2023-11-22T13:24:00;100074.86;;;-0.93;85.28
65872;BME280;52653;50.080;21.992;2023-11-22T13:26:34;100075.42;;;-0.96;85.41
65872;BME280;52653;50.080;21.992;2023-11-22T13:29:07;100075.62;;;-0.95;85.66
65872;BME280;52653;50.080;21.992;2023-11-22T13:31:39;100075.61;;;-0.96;85.87
65872;BME280;52653;50.080;21.992;2023-11-22T13:34:11;100075.70;;;-0.97;85.39
65872;BME280;52653;50.080;21.992;2023-11-22T13:36:45;100076.01;;;-1.04;83.84
65872;BME280;52653;50.080;21.992;2023-11-22T13:39:19;100067.33;;;-1.09;83.34
65872;BME280;52653;50.080;21.992;2023-11-22T13:41:52;100069.78;;;-1.08;84.04
65872;BME280;52653;50.080;21.992;2023-11-22T13:44:24;100071.11;;;-1.06;84.15
65872;BME280;52653;50.080;21.992;2023-11-22T13:46:58;100078.34;;;-1.06;83.48
65872;BME280;52653;50.080;21.992;2023-11-22T13:49:33;100082.80;;;-1.06;83.89
65872;BME280;52653;50.080;21.992;2023-11-22T13:52:09;100083.58;;;-1.07;83.69
65872;BME280;52653;50.080;21.992;2023-11-22T13:54:42;100085.05;;;-1.09;83.65
65872;BME280;52653;50.080;21.992;2023-11-22T13:57:14;100092.42;;;-1.10;84.08
65872;BME280;52653;50.080;21.992;2023-11-22T13:59:46;100094.85;;;-1.09;84.27
65872;BME280;52653;50.080;21.992;2023-11-22T14:02:24;100102.05;;;-1.10;84.64
65872;BME280;52653;50.080;21.992;2023-11-22T14:05:00;100106.52;;;-1.10;84.75
65872;BME280;52653;50.080;21.992;2023-11-22T14:07:34;100119.38;;;-1.11;84.66
65872;BME280;52653;50.080;21.992;2023-11-22T14:10:08;100118.76;;;-1.13;84.84
65872;BME280;52653;50.080;21.992;2023-11-22T14:12:41;100118.63;;;-1.15;85.04
65872;BME280;52653;50.080;21.992;2023-11-22T14:15:14;100123.90;;;-1.16;85.43
65872;BME280;52653;50.080;21.992;2023-11-22T14:17:48;100135.05;;;-1.21;84.62
65872;BME280;52653;50.080;21.992;2023-11-22T14:20:23;100145.30;;;-1.25;84.92
65872;BME280;52653;50.080;21.992;2023-11-22T14:22:56;100152.59;;;-1.27;85.29
65872;BME280;52653;50.080;21.992;2023-11-22T14:25:29;100156.08;;;-1.29;85.44
65872;BME280;52653;50.080;21.992;2023-11-22T14:28:03;100158.41;;;-1.31;85.49
65872;BME280;52653;50.080;21.992;2023-11-22T14:30:36;100167.83;;;-1.31;85.77